• Join FlightAware (Why Join?)
  • Login
  • US Flag 
08:52AM EDT


 

Airport Tracker/Info


-or-


 

Live Flight TrackerFlight Track Log ✈ JUS327 ✈ 10-May-2013 ✈ KTUS - KSLN

Flight Track Log - Related Links

Times and Time Zones

All times are in EDT time to prevent confusion due to time zone crossing. See the JUS327 flight status page for this flight to view local times or setup timezone preferences in your user account.

Time Position Orientation Groundspeed Altitude Reporting Facility
EDT Latitude Longitude Course Direction KTS MPH feet Rate Location/Type
01:55AM 32.0975 -110.9164 128° Southeast 171 197 3,700  Level Albuquerque Center
01:56AM 32.0761 -110.8842 128° Southeast 198 228 4,900 1,500 Climbing Albuquerque Center
01:57AM 32.0464 -110.8303 123° Southeast 218 251 6,200 1,440 Climbing Albuquerque Center
01:58AM 32.0408 -110.7494 95° East 250 288 7,800 2,040 Climbing Albuquerque Center
01:59AM 32.0556 -110.6703 78° East 264 304 10,400 2,400 Climbing Albuquerque Center
02:00AM 32.0967 -110.6003 55° Northeast 278 320 12,700 2,100 Climbing Albuquerque Center
02:01AM 32.1506 -110.5161 53° Northeast 296 341 14,700 1,980 Climbing Albuquerque Center
02:02AM 32.2064 -110.4297 53° Northeast 323 372 16,700 1,860 Climbing Albuquerque Center
02:03AM 32.2606 -110.3386 55° Northeast 335 386 18,500 1,740 Climbing Albuquerque Center
02:04AM 32.2914 -110.2381 70° East 362 417 20,300 1,980 Climbing Albuquerque Center
02:05AM 32.3328 -110.1047 70° East 364 419 22,500 1,740 Climbing Albuquerque Center
02:06AM 32.3656 -109.9867 72° East 382 440 23,900 1,440 Climbing Albuquerque Center
02:07AM 32.3992 -109.8692 71° East 382 440 25,700 1,560 Climbing Albuquerque Center
02:08AM 32.4475 -109.7286 68° East 388 447 27,400 1,440 Climbing Albuquerque Center
02:09AM 32.5217 -109.6328 47° Northeast 396 456 28,700 1,140 Climbing Albuquerque Center
02:10AM 32.5911 -109.5289 52° Northeast 401 461 29,800 1,140 Climbing Albuquerque Center
02:11AM 32.6575 -109.4175 55° Northeast 411 473 31,100 1,140 Climbing Albuquerque Center
02:12AM 32.7350 -109.3150 48° Northeast 417 480 32,200 840 Climbing Albuquerque Center
02:13AM 32.8033 -109.2025 54° Northeast 422 486 32,800 840 Climbing Albuquerque Center
02:14AM 32.8781 -109.0961 50° Northeast 421 484 34,000 960 Climbing Albuquerque Center
02:15AM 32.9542 -108.9794 52° Northeast 428 493 34,800 480 Climbing Albuquerque Center
02:16AM 33.0250 -108.8669 53° Northeast 426 490 35,000 60 Climbing Albuquerque Center
02:17AM 33.1031 -108.7569 50° Northeast 421 484 35,000  Level Albuquerque Center
02:18AM 33.1628 -108.6406 58° Northeast 415 478 35,000  Level Albuquerque Center
02:19AM 33.2314 -108.5306 53° Northeast 414 476 35,000  Level Albuquerque Center
02:20AM 33.3017 -108.4236 52° Northeast 414 476 35,000  Level Albuquerque Center
02:21AM 33.3631 -108.3067 58° Northeast 416 479 35,000  Level Albuquerque Center
02:22AM 33.4308 -108.1956 54° Northeast 417 480 35,000 -60 Level Albuquerque Center
02:23AM 33.4981 -108.0800 55° Northeast 417 480 34,900  Descending Albuquerque Center
02:24AM 33.5622 -107.9658 56° Northeast 414 476 35,000  Climbing Albuquerque Center
02:25AM 33.6328 -107.8572 52° Northeast 413 475 34,900 -60 Descending Albuquerque Center
02:26AM 33.6936 -107.7386 58° Northeast 414 476 34,900  Level Albuquerque Center
02:27AM 33.7619 -107.6294 53° Northeast 410 472 34,900  Level Albuquerque Center
02:28AM 33.8278 -107.5194 54° Northeast 405 466 34,900  Level Albuquerque Center
02:29AM 33.8900 -107.4036 57° Northeast 409 471 34,900  Level Albuquerque Center
02:30AM 33.9603 -107.2922 53° Northeast 414 476 34,900  Level Albuquerque Center
02:31AM 34.0206 -107.1756 58° Northeast 409 471 34,900  Level Albuquerque Center
02:32AM 34.0889 -107.0622 54° Northeast 415 478 34,900  Level Albuquerque Center
02:33AM 34.1553 -106.9492 55° Northeast 414 476 34,900  Level Albuquerque Center
02:34AM 34.2161 -106.8281 59° Northeast 415 478 35,000  Climbing Albuquerque Center
02:35AM 34.2883 -106.7194 51° Northeast 417 480 35,000  Level Albuquerque Center
02:36AM 34.3511 -106.5947 59° Northeast 420 483 35,000  Level Albuquerque Center
02:37AM 34.4169 -106.4783 56° Northeast 422 486 35,000  Level Albuquerque Center
02:38AM 34.4861 -106.3656 53° Northeast 419 482 35,000  Level Albuquerque Center
02:39AM 34.5464 -106.2403 60° Northeast 427 491 35,000  Level Albuquerque Center
02:40AM 34.6292 -106.1100 52° Northeast 418 481 35,000  Level Albuquerque Center
02:41AM 34.6925 -105.9878 58° Northeast 424 488 35,000  Level Albuquerque Center
02:42AM 34.7572 -105.8675 57° Northeast 422 486 35,000  Level Albuquerque Center
02:43AM 34.8269 -105.7522 54° Northeast 421 484 35,000  Level Albuquerque Center
02:45AM 34.8867 -105.6264 60° Northeast 425 489 35,000  Level Albuquerque Center
02:46AM 34.9592 -105.5092 53° Northeast 426 490 35,000  Level Albuquerque Center
02:47AM 35.0258 -105.3875 56° Northeast 429 494 35,000  Level Albuquerque Center
02:48AM 35.0881 -105.2642 58° Northeast 425 489 35,000  Level Albuquerque Center
02:49AM 35.1581 -105.1444 54° Northeast 426 490 35,000  Level Albuquerque Center
02:50AM 35.2183 -105.0181 60° Northeast 428 493 35,000  Level Albuquerque Center
02:51AM 35.2769 -104.9197 54° Northeast 424 488 35,000  Level Albuquerque Center
02:52AM 35.3417 -104.7986 57° Northeast 422 486 35,000  Level Albuquerque Center
02:53AM 35.4036 -104.6739 59° Northeast 422 486 35,000  Level Albuquerque Center
02:54AM 35.4744 -104.5564 53° Northeast 422 486 35,000  Level Albuquerque Center
02:55AM 35.5344 -104.4303 60° Northeast 420 483 35,000  Level Albuquerque Center
02:56AM 35.6022 -104.3100 55° Northeast 421 484 35,000  Level Albuquerque Center
02:57AM 35.6667 -104.1875 57° Northeast 420 483 35,000  Level Albuquerque Center
02:58AM 35.7281 -104.0619 59° Northeast 422 486 35,000  Level Albuquerque Center
02:59AM 35.7972 -103.9444 54° Northeast 419 482 35,000  Level Albuquerque Center
03:00AM 35.8547 -103.8175 61° Northeast 418 481 35,000  Level Albuquerque Center
03:01AM 35.9225 -103.6969 55° Northeast 421 484 35,000  Level Albuquerque Center
03:02AM 35.9856 -103.5744 58° Northeast 420 483 35,000  Level Albuquerque Center
03:03AM 36.0469 -103.4486 59° Northeast 421 484 35,000  Level Albuquerque Center
03:04AM 36.1156 -103.3311 54° Northeast 420 483 35,000  Level Albuquerque Center
03:05AM 36.1719 -103.2025 61° Northeast 421 484 35,000  Level Albuquerque Center
03:06AM 36.2350 -103.0803 57° Northeast 419 482 35,000  Level Albuquerque Center
03:07AM 36.2947 -102.9558 59° Northeast 417 480 35,000  Level Albuquerque Center
03:08AM 36.3594 -102.8444 54° Northeast 416 479 35,000  Level Albuquerque Center
03:09AM 36.4178 -102.7211 60° Northeast 415 478 35,000  Level Albuquerque Center
03:10AM 36.4775 -102.5972 59° Northeast 417 480 35,000  Level Albuquerque Center
03:11AM 36.5450 -102.4797 54° Northeast 418 481 35,000  Level Albuquerque Center
03:12AM 36.6011 -102.3553 61° Northeast 414 476 35,000  Level Albuquerque Center
03:13AM 36.6644 -102.2344 57° Northeast 416 479 35,000  Level Albuquerque Center
03:14AM 36.7322 -102.1036 57° Northeast 412 474 35,000  Level Albuquerque Center
03:15AM 36.7819 -101.9817 63° Northeast 411 473 35,000  Level Albuquerque Center
03:16AM 36.8450 -101.8697 55° Northeast 410 472 35,000  Level Albuquerque Center
03:17AM 36.9117 -101.7356 58° Northeast 409 471 35,000  Level Albuquerque Center
03:18AM 36.9647 -101.6156 61° Northeast 410 472 35,000  Level Albuquerque Center
03:20AM 37.1058 -101.3247 59° Northeast 409 471 35,000  Level Kansas City Center
03:21AM 37.1664 -101.2108 56° Northeast 412 474 35,000  Level Kansas City Center
03:22AM 37.2319 -101.0761 59° Northeast 407 468 35,000  Level Kansas City Center
03:23AM 37.2836 -100.9561 62° Northeast 409 471 35,000  Level Kansas City Center
03:24AM 37.3458 -100.8425 55° Northeast 413 475 35,000  Level Kansas City Center
03:25AM 37.4042 -100.7006 63° Northeast 414 476 35,000  Level Kansas City Center
03:26AM 37.4622 -100.5853 58° Northeast 413 475 35,000  Level Kansas City Center
03:27AM 37.5217 -100.4706 57° Northeast 412 474 35,000  Level Kansas City Center
03:28AM 37.5792 -100.3269 63° Northeast 413 475 35,000  Level Kansas City Center
03:29AM 37.6411 -100.2131 55° Northeast 412 474 35,000  Level Kansas City Center
03:30AM 37.6983 -100.0919 59° Northeast 419 482 35,000  Level Kansas City Center
03:31AM 37.7581 -99.9486 62° Northeast 416 479 35,000  Level Kansas City Center
03:32AM 37.8194 -99.8325 56° Northeast 413 475 35,000  Level Kansas City Center
03:33AM 37.8706 -99.7086 62° Northeast 417 480 35,000 -480 Level Kansas City Center
03:34AM 37.9253 -99.5861 60° Northeast 417 480 34,100 -1,140 Descending Kansas City Center
03:35AM 37.9894 -99.4572 58° Northeast 420 483 32,800 -1,440 Descending Kansas City Center
03:36AM 38.0378 -99.3239 65° Northeast 422 486 31,300 -1,800 Descending Kansas City Center
03:37AM 38.0731 -99.1847 72° East 415 478 29,200 -2,100 Descending Kansas City Center
03:38AM 38.1072 -99.0444 73° East 416 479 27,100 -2,220 Descending Kansas City Center
03:39AM 38.1469 -98.9028 70° East 422 486 24,800 -2,340 Descending Kansas City Center
03:40AM 38.1911 -98.7675 67° East 417 480 22,400 -2,520 Descending Kansas City Center
03:41AM 38.2328 -98.6375 68° East 398 458 19,800 -2,340 Descending Kansas City Center
03:42AM 38.2692 -98.5119 70° East 380 437 17,800 -2,040 Descending Kansas City Center
03:43AM 38.3067 -98.3922 68° East 364 419 15,800 -2,040 Descending Kansas City Center
03:44AM 38.3444 -98.2756 68° East 355 409 13,800 -2,220 Descending Kansas City Center
03:45AM 38.3778 -98.1617 69° East 343 395 11,400 -1,620 Descending Kansas City Center
03:46AM 38.4083 -98.0572 69° East 311 358 10,600 -1,200 Descending Kansas City Center
03:47AM 38.4361 -97.9686 68° East 272 313 9,100 -1,560 Descending Kansas City Center
03:48AM 38.4558 -97.8794 74° East 262 302 7,500 -1,620 Descending Kansas City Center
03:49AM 38.4872 -97.8003 63° Northeast 252 290 5,900 -1,500 Descending Kansas City Center
03:50AM 38.5350 -97.7436 43° Northeast 238 274 4,500 -1,260 Descending Kansas City Center
03:51AM 38.5881 -97.6956 35° Northeast 232 267 3,400 -780 Descending Kansas City Center
03:52AM 38.6394 -97.6536 33° Northeast 221 254 3,000 -300 Descending Kansas City Center
03:53AM 38.6917 -97.6464 North 188 216 2,800 -540 Descending Kansas City Center
03:54AM 38.7389 -97.6456 North 158 182 2,000 -840 Descending Kansas City Center